Terminal Aerodrome Forecast
Issued by NWS

Current Version | Previous Version | Text Only | Print | Product List | Glossary On
Versions: 1 2 3 4 5 6 7 8 9 10 11 12 13 14 15 16 17
000
FTUS45 KBYZ 060202 AAA
TAFLVM
TAF AMD
KLVM 060202Z 0602/0624 12009KT P6SM VCSH SCT120 BKN200
     FM060700 12016KT P6SM VCSH FEW030 BKN070
     FM061200 10013KT P6SM VCSH SCT015 OVC030=

USA.gov is the U.S. government's official web portal to all federal, state and local government web resources and services.